Time;durP1;ratioP1;P1;durP2;ratioP2;P2;SDS_P1;SDS_P2;PMS_P1;PMS_P2;Temp;Humidity;BMP_temperature;BMP_pressure;BME280_temperature;BME280_humidity;BME280_pressure;Samples;Min_cycle;Max_cycle;Signal;HPM_P1;HPM_P2
2023/03/07 00:01:32;;;;;;;48.00;23.50;;;;;;;;;;106537;1279;22533;-77
2023/03/07 00:03:59;;;;;;;49.80;23.40;;;;;;;;;;106670;1278;22538;-77
2023/03/07 00:06:26;;;;;;;49.90;24.20;;;;;;;;;;106421;1278;24358;-77
2023/03/07 00:08:55;;;;;;;46.80;22.50;;;;;;;;;;106450;1262;25315;-76
2023/03/07 00:11:24;;;;;;;50.80;22.80;;;;;;;;;;106626;1278;22524;-77
2023/03/07 00:14:11;;;;;;;45.90;21.50;;;;;;;;;;106737;1269;22526;-78
2023/03/07 00:16:37;;;;;;;52.70;22.50;;;;;;;;;;106709;1277;22999;-76
2023/03/07 00:19:06;;;;;;;49.90;23.30;;;;;;;;;;106526;1264;25539;-75
2023/03/07 00:21:33;;;;;;;50.00;23.40;;;;;;;;;;106697;1279;22516;-73
2023/03/07 00:24:20;;;;;;;48.30;21.80;;;;;;;;;;106693;1278;24199;-77
2023/03/07 00:26:47;;;;;;;47.20;23.00;;;;;;;;;;106720;1256;22539;-76
2023/03/07 00:29:14;;;;;;;48.10;23.30;;;;;;;;;;106633;1259;22517;-75
2023/03/07 00:32:01;;;;;;;50.20;23.20;;;;;;;;;;106653;1278;22531;-79
2023/03/07 00:34:30;;;;;;;49.70;21.30;;;;;;;;;;106792;1277;22541;-73
2023/03/07 00:37:00;;;;;;;45.70;22.00;;;;;;;;;;106512;1278;22796;-76
2023/03/07 00:39:29;;;;;;;42.50;19.00;;;;;;;;;;106661;1261;24324;-75
2023/03/07 00:42:19;;;;;;;49.90;23.00;;;;;;;;;;106731;1279;25308;-75
2023/03/07 00:44:46;;;;;;;50.80;22.40;;;;;;;;;;106685;1279;22584;-75
2023/03/07 00:47:13;;;;;;;50.70;22.50;;;;;;;;;;106635;1279;24559;-80
2023/03/07 00:50:03;;;;;;;50.60;22.30;;;;;;;;;;106588;1259;24272;-79
2023/03/07 00:52:30;;;;;;;47.30;21.60;;;;;;;;;;106795;1278;22523;-73
2023/03/07 00:54:57;;;;;;;46.90;21.50;;;;;;;;;;106610;1278;25328;-73
2023/03/07 00:57:30;;;;;;;41.80;18.60;;;;;;;;;;106504;1278;24347;-76
2023/03/07 00:59:57;;;;;;;43.70;19.10;;;;;;;;;;106725;1279;24186;-75
2023/03/07 01:02:28;;;;;;;45.40;21.10;;;;;;;;;;106714;1279;24205;-74
2023/03/07 01:05:02;;;;;;;45.50;20.50;;;;;;;;;;106445;1279;24214;-74
2023/03/07 01:07:32;;;;;;;50.80;22.50;;;;;;;;;;106785;1279;25511;-76
2023/03/07 01:10:02;;;;;;;47.60;22.10;;;;;;;;;;106777;1260;24249;-79
2023/03/07 01:12:29;;;;;;;51.50;22.60;;;;;;;;;;106729;1278;22553;-74
2023/03/07 01:15:00;;;;;;;52.20;24.10;;;;;;;;;;106680;1278;25383;-76
2023/03/07 01:17:26;;;;;;;52.10;24.70;;;;;;;;;;106742;1278;22758;-76
2023/03/07 01:19:56;;;;;;;52.40;23.90;;;;;;;;;;106746;1257;22523;-74
2023/03/07 01:22:44;;;;;;;46.60;22.40;;;;;;;;;;106391;1279;24199;-76
2023/03/07 01:25:12;;;;;;;47.00;22.40;;;;;;;;;;106574;1279;22510;-78
2023/03/07 01:27:39;;;;;;;51.90;24.30;;;;;;;;;;106805;1279;22651;-77
2023/03/07 01:30:07;;;;;;;52.40;23.40;;;;;;;;;;106612;1257;22632;-75
2023/03/07 01:32:36;;;;;;;50.50;23.50;;;;;;;;;;106698;1278;24342;-79
2023/03/07 01:35:03;;;;;;;52.90;23.10;;;;;;;;;;106719;1278;22596;-78
2023/03/07 01:37:54;;;;;;;51.40;23.80;;;;;;;;;;106776;1277;22522;-75
2023/03/07 01:40:31;;;;;;;55.80;23.30;;;;;;;;;;106769;1267;22533;-74
2023/03/07 01:43:17;;;;;;;58.10;24.70;;;;;;;;;;106638;1278;23871;-73
2023/03/07 01:45:44;;;;;;;54.20;24.90;;;;;;;;;;106648;1278;22521;-77
2023/03/07 01:48:12;;;;;;;55.00;24.20;;;;;;;;;;106706;1278;25354;-76
2023/03/07 01:50:48;;;;;;;51.80;23.70;;;;;;;;;;106616;1254;22999;-77
2023/03/07 01:53:15;;;;;;;51.20;22.50;;;;;;;;;;106740;1277;25438;-74
2023/03/07 01:55:48;;;;;;;48.20;21.70;;;;;;;;;;106532;1277;22789;-74
2023/03/07 01:58:18;;;;;;;50.10;23.20;;;;;;;;;;106779;1277;24759;-77
2023/03/07 02:00:46;;;;;;;53.20;24.10;;;;;;;;;;106815;1257;22955;-74
2023/03/07 02:03:25;;;;;;;60.20;25.70;;;;;;;;;;106805;1278;25471;-76
2023/03/07 02:06:12;;;;;;;61.50;26.50;;;;;;;;;;106733;1278;25325;-77
2023/03/07 02:08:52;;;;;;;48.20;22.00;;;;;;;;;;106778;1278;24228;-77
2023/03/07 02:11:49;;;;;;;;;;;;;;;;;;;;;
2023/03/07 02:15:12;;;;;;;59.40;26.60;;;;;;;;;;106812;1277;22517;-80
2023/03/07 02:17:19;;;;;;;66.30;29.10;;;;;;;;;;106815;1277;22520;-78
2023/03/07 02:20:35;;;;;;;62.90;28.10;;;;;;;;;;106859;1277;22645;-78
2023/03/07 02:23:12;;;;;;;61.30;26.20;;;;;;;;;;106842;1264;24204;-79
2023/03/07 02:25:46;;;;;;;56.30;25.40;;;;;;;;;;106942;1276;22479;-77
2023/03/07 02:28:19;;;;;;;54.60;25.10;;;;;;;;;;106872;1276;24250;-79
2023/03/07 02:31:12;;;;;;;53.30;24.20;;;;;;;;;;106864;1276;25037;-77
2023/03/07 02:33:42;;;;;;;49.90;22.10;;;;;;;;;;107086;1256;22540;-77
2023/03/07 02:36:16;;;;;;;53.90;23.10;;;;;;;;;;107060;1275;24263;-77
2023/03/07 02:39:07;;;;;;;52.40;22.60;;;;;;;;;;107029;1275;22517;-73
2023/03/07 02:42:06;;;;;;;47.70;21.50;;;;;;;;;;107026;1275;26489;-72
2023/03/07 02:44:50;;;;;;;53.40;21.60;;;;;;;;;;106937;1258;22529;-75
2023/03/07 02:47:43;;;;;;;;;;;;;;;;;;;;;
2023/03/07 02:50:15;;;;;;;46.40;19.80;;;;;;;;;;107036;1276;22786;-80
2023/03/07 02:53:05;;;;;;;40.80;18.70;;;;;;;;;;107018;1261;25230;-80
2023/03/07 02:55:32;;;;;;;39.70;18.40;;;;;;;;;;106900;1276;22528;-75
2023/03/07 02:58:11;;;;;;;;;;;;;;;;;;;;;
2023/03/07 03:00:57;;;;;;;40.30;18.20;;;;;;;;;;106912;1276;25326;-75
2023/03/07 03:03:55;;;;;;;38.80;17.40;;;;;;;;;;106888;1259;22518;-81
2023/03/07 03:06:24;;;;;;;37.40;16.20;;;;;;;;;;106882;1277;22520;-79
2023/03/07 03:09:02;;;;;;;34.40;15.70;;;;;;;;;;106823;1277;22523;-78
2023/03/07 03:14:24;;;;;;;30.70;14.00;;;;;;;;;;106871;1275;22525;-78
2023/03/07 03:16:59;;;;;;;32.40;13.30;;;;;;;;;;106874;1276;26567;-76
2023/03/07 03:19:29;;;;;;;30.60;12.40;;;;;;;;;;106865;1276;25505;-77
2023/03/07 03:21:56;;;;;;;33.40;13.70;;;;;;;;;;106924;1276;22520;-80
2023/03/07 03:24:24;;;;;;;30.80;13.50;;;;;;;;;;106803;1262;25272;-74
2023/03/07 03:27:12;;;;;;;30.80;13.20;;;;;;;;;;106826;1277;22797;-78
2023/03/07 03:30:00;;;;;;;30.40;13.00;;;;;;;;;;106825;1277;22657;-76
2023/03/07 03:32:26;;;;;;;27.80;12.80;;;;;;;;;;106856;1277;24218;-76
2023/03/07 03:34:55;;;;;;;29.00;12.70;;;;;;;;;;106855;1259;25562;-75
2023/03/07 03:37:25;;;;;;;25.80;11.80;;;;;;;;;;106925;1277;23870;-74
2023/03/07 03:40:13;;;;;;;26.20;11.10;;;;;;;;;;106867;1277;22524;-79
2023/03/07 03:42:43;;;;;;;28.90;12.00;;;;;;;;;;106793;1277;22610;-75
2023/03/07 03:45:13;;;;;;;25.50;11.70;;;;;;;;;;106791;1262;24318;-77
2023/03/07 03:47:41;;;;;;;26.40;11.40;;;;;;;;;;106813;1278;24316;-75
2023/03/07 03:50:18;;;;;;;31.40;14.00;;;;;;;;;;106784;1278;22520;-79
2023/03/07 03:53:00;;;;;;;34.70;14.30;;;;;;;;;;106809;1278;22988;-77
2023/03/07 03:55:30;;;;;;;36.30;14.40;;;;;;;;;;106814;1263;22531;-74
2023/03/07 03:57:57;;;;;;;35.60;14.60;;;;;;;;;;106825;1266;22660;-74
2023/03/07 04:00:29;;;;;;;34.00;14.70;;;;;;;;;;106840;1277;22527;-74
2023/03/07 04:02:56;;;;;;;30.50;13.90;;;;;;;;;;106831;1277;25224;-74
2023/03/07 04:05:23;;;;;;;32.30;13.60;;;;;;;;;;106815;1263;25406;-77
2023/03/07 04:07:53;;;;;;;28.40;13.60;;;;;;;;;;106790;1276;22520;-78
2023/03/07 04:10:40;;;;;;;32.50;14.40;;;;;;;;;;106817;1272;25262;-76
2023/03/07 04:13:07;;;;;;;35.00;15.10;;;;;;;;;;106677;1278;22595;-80
2023/03/07 04:15:34;;;;;;;36.60;15.00;;;;;;;;;;106918;1258;22523;-79
2023/03/07 04:18:22;;;;;;;39.30;15.90;;;;;;;;;;106874;1276;25277;-77
2023/03/07 04:20:50;;;;;;;32.80;14.10;;;;;;;;;;107090;1276;24195;-75
2023/03/07 04:23:20;;;;;;;31.60;12.70;;;;;;;;;;106878;1276;22518;-74
2023/03/07 04:25:58;;;;;;;32.20;13.80;;;;;;;;;;106878;1277;22539;-74
2023/03/07 04:28:26;;;;;;;31.80;14.40;;;;;;;;;;106858;1265;23349;-80
2023/03/07 04:31:00;;;;;;;35.00;16.00;;;;;;;;;;106853;1277;22520;-79
2023/03/07 04:33:31;;;;;;;32.50;13.60;;;;;;;;;;106843;1277;22772;-80
2023/03/07 04:36:08;;;;;;;31.60;14.30;;;;;;;;;;106858;1260;22613;-73
2023/03/07 04:38:41;;;;;;;33.90;14.60;;;;;;;;;;107015;1276;22639;-77
2023/03/07 04:41:11;;;;;;;33.00;14.60;;;;;;;;;;106877;1276;24282;-75
2023/03/07 04:43:38;;;;;;;32.70;14.50;;;;;;;;;;106875;1276;24368;-76
2023/03/07 04:46:08;;;;;;;35.40;15.60;;;;;;;;;;106881;1276;22523;-80
2023/03/07 04:48:35;;;;;;;33.20;14.80;;;;;;;;;;106868;1277;22523;-74
2023/03/07 04:51:02;;;;;;;32.80;14.30;;;;;;;;;;106747;1277;22527;-78
2023/03/07 04:53:29;;;;;;;31.60;14.50;;;;;;;;;;106788;1277;22614;-75
2023/03/07 04:56:00;;;;;;;33.80;14.80;;;;;;;;;;106913;1260;25409;-75
2023/03/07 04:58:27;;;;;;;34.70;14.80;;;;;;;;;;106981;1274;25240;-75
2023/03/07 05:01:51;;;;;;;36.70;15.40;;;;;;;;;;106844;1276;23893;-74
2023/03/07 05:04:22;;;;;;;35.00;14.50;;;;;;;;;;106978;1276;22644;-78
2023/03/07 05:06:49;;;;;;;33.90;15.10;;;;;;;;;;106840;1259;22516;-74
2023/03/07 05:09:17;;;;;;;35.80;15.10;;;;;;;;;;106727;1277;25306;-73
2023/03/07 05:11:44;;;;;;;35.10;15.70;;;;;;;;;;106647;1277;22527;-78
2023/03/07 05:14:15;;;;;;;32.20;15.00;;;;;;;;;;106846;1277;25315;-77
2023/03/07 05:17:05;;;;;;;31.70;14.20;;;;;;;;;;106949;1259;22542;-76
2023/03/07 05:19:32;;;;;;;34.20;15.00;;;;;;;;;;106921;1254;22524;-75
2023/03/07 05:21:59;;;;;;;35.60;15.80;;;;;;;;;;106881;1276;24068;-75
2023/03/07 05:24:26;;;;;;;36.20;15.30;;;;;;;;;;107014;1276;22520;-84
2023/03/07 05:26:56;;;;;;;40.60;17.20;;;;;;;;;;106780;1259;24668;-74
2023/03/07 05:29:33;;;;;;;45.80;17.60;;;;;;;;;;106843;1277;25274;-75
2023/03/07 05:32:20;;;;;;;49.00;18.60;;;;;;;;;;106843;1277;25332;-72
2023/03/07 05:34:51;;;;;;;46.70;19.10;;;;;;;;;;106827;1277;24190;-75
2023/03/07 05:37:19;;;;;;;44.30;18.10;;;;;;;;;;106875;1276;22517;-77
2023/03/07 05:39:46;;;;;;;35.80;15.70;;;;;;;;;;106884;1276;22559;-79
2023/03/07 05:42:18;;;;;;;32.70;15.20;;;;;;;;;;106900;1276;22633;-77
2023/03/07 05:44:50;;;;;;;35.20;15.70;;;;;;;;;;106988;1276;24258;-73
2023/03/07 05:47:37;;;;;;;33.60;15.00;;;;;;;;;;106796;1260;24228;-73
2023/03/07 05:50:19;;;;;;;37.10;15.90;;;;;;;;;;106856;1277;22669;-74
2023/03/07 05:52:54;;;;;;;34.30;15.60;;;;;;;;;;106847;1277;22485;-73
2023/03/07 05:55:42;;;;;;;41.40;18.00;;;;;;;;;;106832;1277;22531;-76
2023/03/07 05:58:09;;;;;;;40.70;17.50;;;;;;;;;;110325;1257;22293;-73
2023/03/07 06:00:36;;;;;;;34.30;16.30;;;;;;;;;;110475;1276;22173;-72
2023/03/07 06:03:03;;;;;;;39.90;16.30;;;;;;;;;;110671;1276;22982;-73
2023/03/07 06:05:31;;;;;;;31.20;14.10;;;;;;;;;;110333;1276;22426;-72
2023/03/07 06:07:57;;;;;;;30.90;14.60;;;;;;;;;;110366;1259;22188;-73
2023/03/07 06:10:24;;;;;;;32.00;15.60;;;;;;;;;;110447;1277;22767;-73
2023/03/07 06:12:54;;;;;;;31.60;15.00;;;;;;;;;;110291;1278;22263;-72
2023/03/07 06:15:21;;;;;;;30.90;15.70;;;;;;;;;;110401;1277;22311;-72
2023/03/07 06:17:51;;;;;;;29.10;14.30;;;;;;;;;;110224;1260;22133;-73
2023/03/07 06:20:21;;;;;;;30.00;14.30;;;;;;;;;;110356;1275;22514;-72
2023/03/07 06:22:48;;;;;;;36.00;16.80;;;;;;;;;;110240;1277;22768;-73
2023/03/07 06:25:15;;;;;;;36.80;17.20;;;;;;;;;;110274;1276;22342;-73
2023/03/07 06:27:42;;;;;;;46.80;20.50;;;;;;;;;;110370;1259;22319;-73
2023/03/07 06:30:10;;;;;;;44.00;20.90;;;;;;;;;;110278;1278;22110;-73
2023/03/07 06:32:36;;;;;;;44.50;20.30;;;;;;;;;;110254;1278;22447;-73
2023/03/07 06:35:04;;;;;;;39.10;17.90;;;;;;;;;;110296;1259;22190;-73
2023/03/07 06:37:30;;;;;;;36.60;17.50;;;;;;;;;;110206;1260;22028;-73
2023/03/07 06:39:58;;;;;;;32.30;16.20;;;;;;;;;;110431;1276;22295;-73
2023/03/07 06:42:25;;;;;;;28.40;13.80;;;;;;;;;;110296;1276;22308;-73
2023/03/07 06:44:51;;;;;;;33.90;16.20;;;;;;;;;;110434;1276;22315;-74
2023/03/07 06:47:19;;;;;;;34.70;14.60;;;;;;;;;;110267;1262;22161;-73
2023/03/07 06:49:45;;;;;;;28.80;13.20;;;;;;;;;;110317;1277;22390;-73
2023/03/07 06:52:13;;;;;;;31.20;13.20;;;;;;;;;;110461;1277;22104;-73
2023/03/07 06:54:39;;;;;;;27.20;12.80;;;;;;;;;;110285;1277;22115;-72
2023/03/07 06:57:06;;;;;;;29.40;13.90;;;;;;;;;;110320;1253;22309;-74
2023/03/07 06:59:33;;;;;;;28.80;13.40;;;;;;;;;;110435;1276;22095;-73
2023/03/07 07:02:05;;;;;;;32.10;13.50;;;;;;;;;;110437;1276;22829;-73
2023/03/07 07:04:32;;;;;;;30.20;13.60;;;;;;;;;;110347;1276;22195;-73
2023/03/07 07:06:58;;;;;;;24.30;11.90;;;;;;;;;;110338;1276;22881;-73
2023/03/07 07:09:27;;;;;;;26.80;12.90;;;;;;;;;;110329;1257;22183;-73
2023/03/07 07:11:54;;;;;;;27.50;12.20;;;;;;;;;;110275;1278;22117;-73
2023/03/07 07:14:22;;;;;;;28.50;12.20;;;;;;;;;;110304;1277;22204;-73
2023/03/07 07:16:49;;;;;;;26.40;12.50;;;;;;;;;;110285;1277;22773;-74
2023/03/07 07:19:16;;;;;;;23.10;11.20;;;;;;;;;;110725;1259;22262;-73
2023/03/07 07:21:43;;;;;;;24.00;11.00;;;;;;;;;;110355;1276;22146;-73
2023/03/07 07:24:10;;;;;;;24.10;11.10;;;;;;;;;;110467;1276;22220;-74
2023/03/07 07:26:37;;;;;;;21.40;9.80;;;;;;;;;;110309;1276;22142;-73
2023/03/07 07:29:04;;;;;;;23.80;11.00;;;;;;;;;;110553;1259;22094;-74
2023/03/07 07:31:31;;;;;;;27.00;12.50;;;;;;;;;;110307;1277;22933;-74
2023/03/07 07:33:58;;;;;;;30.70;13.30;;;;;;;;;;110446;1277;22261;-74
2023/03/07 07:36:27;;;;;;;30.20;13.70;;;;;;;;;;110295;1278;22262;-76
2023/03/07 07:38:54;;;;;;;29.30;13.30;;;;;;;;;;110434;1259;22141;-74
2023/03/07 07:41:20;;;;;;;24.20;11.60;;;;;;;;;;110318;1278;22120;-73
2023/03/07 07:43:51;;;;;;;24.60;11.10;;;;;;;;;;110351;1277;22112;-73
2023/03/07 07:46:22;;;;;;;23.50;10.20;;;;;;;;;;110424;1277;22165;-74
2023/03/07 07:48:49;;;;;;;23.30;10.70;;;;;;;;;;110501;1260;22116;-73
2023/03/07 07:51:16;;;;;;;21.00;10.20;;;;;;;;;;110233;1278;22145;-74
2023/03/07 07:53:42;;;;;;;23.80;11.50;;;;;;;;;;110354;1278;22222;-74
2023/03/07 07:56:09;;;;;;;21.60;9.60;;;;;;;;;;110201;1278;22889;-73
2023/03/07 07:58:36;;;;;;;20.60;9.60;;;;;;;;;;110383;1255;22374;-73
2023/03/07 08:01:16;;;;;;;20.80;10.90;;;;;;;;;;110258;1277;22119;-73
2023/03/07 08:03:43;;;;;;;23.50;11.40;;;;;;;;;;110250;1277;22819;-73
2023/03/07 08:06:10;;;;;;;21.40;9.80;;;;;;;;;;110459;1277;22080;-73
2023/03/07 08:08:37;;;;;;;21.80;10.80;;;;;;;;;;110343;1257;22186;-73
2023/03/07 08:11:04;;;;;;;20.30;9.40;;;;;;;;;;110100;1278;22231;-73
2023/03/07 08:13:31;;;;;;;20.20;9.90;;;;;;;;;;110354;1278;22172;-73
2023/03/07 08:15:57;;;;;;;22.00;10.20;;;;;;;;;;110232;1278;21967;-72
2023/03/07 08:18:24;;;;;;;21.80;10.10;;;;;;;;;;110110;1278;22154;-73
2023/03/07 08:20:51;;;;;;;25.50;11.50;;;;;;;;;;110669;1258;21706;-73
2023/03/07 08:23:17;;;;;;;23.40;10.60;;;;;;;;;;110433;1277;22141;-74
2023/03/07 08:25:44;;;;;;;25.50;11.80;;;;;;;;;;110430;1277;22165;-73
2023/03/07 08:28:10;;;;;;;22.40;10.50;;;;;;;;;;110424;1277;22807;-73
2023/03/07 08:30:37;;;;;;;21.00;10.20;;;;;;;;;;110447;1260;22148;-74
2023/03/07 08:33:04;;;;;;;22.00;10.00;;;;;;;;;;110350;1278;22238;-73
2023/03/07 08:35:30;;;;;;;22.50;10.20;;;;;;;;;;110236;1278;22178;-73
2023/03/07 08:38:00;;;;;;;20.40;10.00;;;;;;;;;;110128;1278;22118;-74
2023/03/07 08:40:28;;;;;;;22.70;11.10;;;;;;;;;;110251;1259;22109;-75
2023/03/07 08:42:55;;;;;;;19.50;9.60;;;;;;;;;;110429;1278;22033;-76
2023/03/07 08:45:22;;;;;;;22.60;11.10;;;;;;;;;;110183;1278;22326;-74
2023/03/07 08:47:55;;;;;;;20.00;10.30;;;;;;;;;;110436;1278;22394;-73
2023/03/07 08:50:23;;;;;;;18.10;9.30;;;;;;;;;;110313;1260;22117;-74
2023/03/07 08:52:49;;;;;;;19.10;9.30;;;;;;;;;;110282;1278;22122;-72
2023/03/07 08:55:16;;;;;;;19.20;9.30;;;;;;;;;;110299;1279;22304;-73
2023/03/07 08:57:44;;;;;;;17.20;9.00;;;;;;;;;;110291;1279;22082;-74
2023/03/07 09:00:11;;;;;;;20.50;9.90;;;;;;;;;;110416;1254;22853;-73
2023/03/07 09:02:38;;;;;;;21.20;10.10;;;;;;;;;;110399;1278;22118;-74
2023/03/07 09:05:05;;;;;;;17.90;9.70;;;;;;;;;;110407;1278;22107;-74
2023/03/07 09:07:32;;;;;;;19.60;9.30;;;;;;;;;;110438;1278;22098;-74
2023/03/07 09:09:58;;;;;;;17.40;9.90;;;;;;;;;;110458;1256;22183;-74
2023/03/07 09:12:25;;;;;;;15.80;8.20;;;;;;;;;;110109;1279;22103;-74
2023/03/07 09:14:52;;;;;;;17.10;8.80;;;;;;;;;;110146;1279;22750;-75
2023/03/07 09:17:19;;;;;;;19.30;9.50;;;;;;;;;;110162;1279;22723;-74
2023/03/07 09:19:46;;;;;;;19.30;9.30;;;;;;;;;;110293;1278;22094;-74
2023/03/07 09:22:13;;;;;;;19.10;9.90;;;;;;;;;;110500;1255;22173;-74
2023/03/07 09:24:40;;;;;;;19.30;9.30;;;;;;;;;;110409;1278;22718;-75
2023/03/07 09:27:06;;;;;;;18.40;8.90;;;;;;;;;;110266;1278;22131;-73
2023/03/07 09:29:33;;;;;;;17.70;9.20;;;;;;;;;;110314;1278;22511;-76
2023/03/07 09:32:01;;;;;;;19.00;9.60;;;;;;;;;;110548;1260;22123;-75
2023/03/07 09:34:28;;;;;;;18.60;8.90;;;;;;;;;;110295;1279;21931;-75
2023/03/07 09:36:54;;;;;;;19.10;9.40;;;;;;;;;;110135;1278;22107;-74
2023/03/07 09:39:21;;;;;;;17.90;8.70;;;;;;;;;;110150;1279;22310;-74
2023/03/07 09:42:00;;;;;;;19.70;9.20;;;;;;;;;;110618;1258;22155;-73
2023/03/07 09:44:51;;;;;;;17.80;9.10;;;;;;;;;;110361;1278;22135;-83
2023/03/07 09:47:35;;;;;;;17.20;9.10;;;;;;;;;;110351;1278;22121;-74
2023/03/07 09:50:02;;;;;;;17.90;9.40;;;;;;;;;;110360;1278;22769;-74
2023/03/07 09:52:32;;;;;;;18.90;9.50;;;;;;;;;;110442;1257;22683;-74
2023/03/07 09:55:00;;;;;;;22.50;9.90;;;;;;;;;;110149;1279;22121;-73
2023/03/07 09:57:28;;;;;;;17.70;9.20;;;;;;;;;;110289;1279;22123;-74
2023/03/07 09:59:57;;;;;;;16.80;8.60;;;;;;;;;;110295;1279;22148;-74
2023/03/07 10:02:29;;;;;;;16.20;8.70;;;;;;;;;;110557;1257;22130;-74
2023/03/07 10:05:12;;;;;;;16.50;8.80;;;;;;;;;;110262;1278;22123;-74
2023/03/07 10:07:39;;;;;;;15.20;8.20;;;;;;;;;;110374;1278;22167;-73
2023/03/07 10:10:10;;;;;;;17.80;10.00;;;;;;;;;;110268;1278;22105;-74
2023/03/07 10:12:55;;;;;;;18.00;9.00;;;;;;;;;;110362;1257;22129;-73
2023/03/07 10:15:32;;;;;;;17.50;9.40;;;;;;;;;;110305;1279;22120;-74
2023/03/07 10:18:08;;;;;;;15.90;8.00;;;;;;;;;;110286;1279;22263;-73
2023/03/07 10:20:35;;;;;;;15.90;8.30;;;;;;;;;;110311;1279;22045;-74
2023/03/07 10:23:07;;;;;;;15.70;8.30;;;;;;;;;;110579;1260;22097;-73
2023/03/07 10:25:45;;;;;;;15.70;7.90;;;;;;;;;;110380;1278;22116;-74
2023/03/07 10:28:20;;;;;;;15.30;8.00;;;;;;;;;;110146;1278;22088;-74
2023/03/07 10:30:48;;;;;;;15.20;8.00;;;;;;;;;;110357;1278;22124;-73
2023/03/07 10:33:16;;;;;;;18.00;8.20;;;;;;;;;;110349;1263;22077;-74
2023/03/07 10:35:47;;;;;;;15.00;7.80;;;;;;;;;;110190;1279;22132;-73
2023/03/07 10:38:29;;;;;;;15.10;8.20;;;;;;;;;;110301;1264;22892;-74
2023/03/07 10:41:00;;;;;;;15.50;7.60;;;;;;;;;;110150;1280;22720;-73
2023/03/07 10:43:31;;;;;;;16.80;8.10;;;;;;;;;;110589;1258;22158;-72
2023/03/07 10:46:00;;;;;;;14.40;7.50;;;;;;;;;;110110;1279;22975;-73
2023/03/07 10:48:26;;;;;;;16.00;8.10;;;;;;;;;;110214;1279;22114;-86
2023/03/07 10:51:05;;;;;;;16.30;8.40;;;;;;;;;;110318;1279;22195;-73
2023/03/07 10:53:33;;;;;;;17.20;8.20;;;;;;;;;;110416;1262;22180;-74
2023/03/07 10:56:11;;;;;;;18.60;8.60;;;;;;;;;;110139;1280;22152;-74
2023/03/07 10:58:38;;;;;;;23.60;10.90;;;;;;;;;;110169;1280;22124;-73
2023/03/07 11:01:07;;;;;;;28.80;12.10;;;;;;;;;;108500;1280;2275190;-73
2023/03/07 11:03:37;;;;;;;25.60;10.80;;;;;;;;;;110549;1260;22276;-73
2023/03/07 11:06:04;;;;;;;19.30;8.30;;;;;;;;;;110320;1279;22189;-73
2023/03/07 11:08:32;;;;;;;16.50;7.80;;;;;;;;;;110297;1279;22113;-73
2023/03/07 11:10:59;;;;;;;14.80;7.50;;;;;;;;;;110331;1279;22190;-73
2023/03/07 11:13:27;;;;;;;20.10;8.50;;;;;;;;;;110366;1262;22329;-73
2023/03/07 11:16:12;;;;;;;17.70;8.40;;;;;;;;;;110146;1280;22182;-73
2023/03/07 11:18:41;;;;;;;19.80;8.90;;;;;;;;;;110201;1280;22150;-74
2023/03/07 11:21:26;;;;;;;18.00;8.70;;;;;;;;;;110203;1280;22105;-73
2023/03/07 11:24:03;;;;;;;30.60;12.70;;;;;;;;;;110536;1256;22140;-73
2023/03/07 11:26:33;;;;;;;30.60;12.70;;;;;;;;;;110206;1279;22124;-73
2023/03/07 11:29:10;;;;;;;20.80;8.40;;;;;;;;;;110185;1279;22127;-73
2023/03/07 11:31:42;;;;;;;18.70;8.40;;;;;;;;;;110203;1279;22071;-74
2023/03/07 11:34:29;;;;;;;13.40;6.40;;;;;;;;;;110497;1260;22108;-72
2023/03/07 11:37:03;;;;;;;14.50;7.00;;;;;;;;;;110127;1280;22299;-73
2023/03/07 11:39:36;;;;;;;17.00;7.20;;;;;;;;;;110189;1280;22811;-72
2023/03/07 11:42:08;;;;;;;14.50;6.60;;;;;;;;;;110141;1280;22816;-73
2023/03/07 11:44:40;;;;;;;12.40;6.00;;;;;;;;;;110489;1260;22615;-73
2023/03/07 11:47:07;;;;;;;13.20;6.80;;;;;;;;;;110281;1279;22140;-74
2023/03/07 11:49:43;;;;;;;15.00;6.80;;;;;;;;;;110283;1279;22117;-73
2023/03/07 11:52:16;;;;;;;15.70;7.40;;;;;;;;;;110133;1267;22199;-73
2023/03/07 11:54:57;;;;;;;16.00;7.70;;;;;;;;;;110389;1260;22303;-74
2023/03/07 11:57:24;;;;;;;14.90;7.10;;;;;;;;;;110126;1280;22127;-73
2023/03/07 11:59:55;;;;;;;14.40;6.20;;;;;;;;;;110157;1280;21995;-74
2023/03/07 12:02:32;;;;;;;14.70;6.00;;;;;;;;;;110185;1280;22107;-73
2023/03/07 12:04:59;;;;;;;18.60;6.80;;;;;;;;;;110321;1258;22130;-73
2023/03/07 12:07:45;;;;;;;14.30;6.40;;;;;;;;;;110291;1279;22167;-74
2023/03/07 12:10:12;;;;;;;15.70;6.70;;;;;;;;;;110280;1279;22816;-73
2023/03/07 12:12:46;;;;;;;13.60;6.00;;;;;;;;;;110270;1279;22107;-73
2023/03/07 12:15:31;;;;;;;16.50;6.60;;;;;;;;;;110433;1260;22721;-73
2023/03/07 12:18:10;;;;;;;13.90;6.40;;;;;;;;;;110157;1280;22122;-73
2023/03/07 12:20:37;;;;;;;13.80;6.30;;;;;;;;;;110084;1280;22103;-74
2023/03/07 12:23:11;;;;;;;12.60;6.10;;;;;;;;;;110158;1280;22114;-74
2023/03/07 12:25:42;;;;;;;13.40;6.10;;;;;;;;;;110599;1260;22158;-74
2023/03/07 12:28:13;;;;;;;11.70;5.80;;;;;;;;;;110279;1279;22570;-73
2023/03/07 12:30:49;;;;;;;15.80;7.30;;;;;;;;;;110271;1279;22410;-74
2023/03/07 12:33:25;;;;;;;15.70;6.40;;;;;;;;;;110179;1279;22132;-73
2023/03/07 12:35:56;;;;;;;14.00;5.70;;;;;;;;;;110487;1263;22824;-72
2023/03/07 12:38:34;;;;;;;15.10;6.30;;;;;;;;;;110119;1280;22763;-73
2023/03/07 12:41:25;;;;;;;12.70;6.00;;;;;;;;;;110031;1281;22133;-73
2023/03/07 12:43:56;;;;;;;12.20;5.40;;;;;;;;;;110091;1280;23023;-74
2023/03/07 12:46:37;;;;;;;10.20;5.00;;;;;;;;;;110141;1264;22107;-74
2023/03/07 12:49:20;;;;;;;13.00;6.30;;;;;;;;;;110184;1280;22062;-72
2023/03/07 12:51:56;;;;;;;13.20;6.20;;;;;;;;;;110150;1280;22036;-77
2023/03/07 12:54:32;;;;;;;10.90;4.90;;;;;;;;;;110139;1273;22172;-73
2023/03/07 12:57:19;;;;;;;12.80;5.30;;;;;;;;;;110033;1281;22122;-74
2023/03/07 12:59:49;;;;;;;14.50;6.00;;;;;;;;;;110132;1281;23095;-74
2023/03/07 13:02:27;;;;;;;12.90;5.60;;;;;;;;;;110116;1281;22100;-77
2023/03/07 13:04:58;;;;;;;12.30;4.90;;;;;;;;;;110035;1275;22134;-75
2023/03/07 13:07:32;;;;;;;10.20;5.20;;;;;;;;;;110165;1280;22112;-73
2023/03/07 13:10:04;;;;;;;10.90;5.20;;;;;;;;;;110163;1279;22124;-73
2023/03/07 13:12:34;;;;;;;10.20;4.90;;;;;;;;;;110151;1279;22609;-73
2023/03/07 13:15:04;;;;;;;12.80;5.70;;;;;;;;;;110096;1262;22130;-74
2023/03/07 13:18:05;;;;;;;;;;;;;;;;;;;;;
2023/03/07 13:20:36;;;;;;;12.40;6.30;;;;;;;;;;110102;1281;22134;-74
2023/03/07 13:23:13;;;;;;;12.50;6.00;;;;;;;;;;110126;1281;22101;-73
2023/03/07 13:25:50;;;;;;;11.10;5.30;;;;;;;;;;110340;1257;22152;-73
2023/03/07 13:28:33;;;;;;;11.50;5.10;;;;;;;;;;110127;1280;22093;-73
2023/03/07 13:31:31;;;;;;;11.50;5.60;;;;;;;;;;110146;1280;22210;-74
2023/03/07 13:34:19;;;;;;;11.40;5.40;;;;;;;;;;110182;1280;22122;-76
2023/03/07 13:36:48;;;;;;;12.20;5.00;;;;;;;;;;110300;1257;22121;-73
2023/03/07 13:48:55;;;;;;;10.10;4.80;;;;;;;;;;104184;1286;544807;-77
2023/03/07 13:51:31;;;;;;;14.30;5.10;;;;;;;;;;105937;1288;24282;-76
2023/03/07 13:54:07;;;;;;;13.90;5.40;;;;;;;;;;106154;1279;22546;-77
2023/03/07 13:57:00;;;;;;;15.00;5.50;;;;;;;;;;106280;1279;22550;-76
2023/03/07 13:59:36;;;;;;;13.20;5.20;;;;;;;;;;106349;1278;23879;-74
2023/03/07 14:02:15;;;;;;;11.70;5.80;;;;;;;;;;104549;1277;2702630;-76
2023/03/07 14:04:53;;;;;;;10.20;5.40;;;;;;;;;;106595;1276;22604;-74
2023/03/07 14:07:27;;;;;;;12.70;6.10;;;;;;;;;;106557;1278;25581;-73
2023/03/07 14:10:20;;;;;;;13.10;6.60;;;;;;;;;;106553;1273;22546;-73
2023/03/07 14:13:48;;;;;;;14.00;6.80;;;;;;;;;;106520;1278;25184;-74
2023/03/07 14:16:46;;;;;;;12.90;6.60;;;;;;;;;;106638;1278;22520;-72
2023/03/07 14:20:01;;;;;;;;;;;;;;;;;;;;;
2023/03/07 14:23:08;;;;;;;15.10;7.40;;;;;;;;;;106864;1269;25542;-74
2023/03/07 14:25:47;;;;;;;15.90;8.10;;;;;;;;;;106865;1272;25217;-78
2023/03/07 14:28:32;;;;;;;14.30;6.60;;;;;;;;;;106753;1275;22530;-75
2023/03/07 14:31:06;;;;;;;16.10;8.20;;;;;;;;;;106619;1269;25360;-76
2023/03/07 14:33:54;;;;;;;19.30;8.60;;;;;;;;;;106851;1270;22697;-76
2023/03/07 14:36:29;;;;;;;15.20;7.40;;;;;;;;;;106803;1272;24253;-73
2023/03/07 14:39:37;;;;;;;14.30;5.90;;;;;;;;;;106557;1254;24404;-75
2023/03/07 14:42:24;;;;;;;15.90;6.80;;;;;;;;;;106780;1270;22526;-74
2023/03/07 14:45:42;;;;;;;17.80;7.90;;;;;;;;;;106832;1278;25511;-75
2023/03/07 14:48:14;;;;;;;14.00;6.20;;;;;;;;;;106799;1278;25278;-77
2023/03/07 14:51:10;;;;;;;15.50;7.20;;;;;;;;;;106841;1259;26492;-74
2023/03/07 14:53:43;;;;;;;15.70;7.20;;;;;;;;;;106804;1278;22990;-77
2023/03/07 14:56:17;;;;;;;16.60;7.80;;;;;;;;;;106814;1278;22599;-76
2023/03/07 14:59:05;;;;;;;17.30;7.40;;;;;;;;;;106745;1278;24257;-72
2023/03/07 15:02:03;;;;;;;15.40;7.00;;;;;;;;;;106607;1273;25243;-74
2023/03/07 15:07:24;;;;;;;14.50;6.80;;;;;;;;;;106729;1278;25268;-74